Time;durP1;ratioP1;P1;durP2;ratioP2;P2;SDS_P1;SDS_P2;PMS_P1;PMS_P2;Temp;Humidity;BMP_temperature;BMP_pressure;BME280_temperature;BME280_humidity;BME280_pressure;Samples;Min_cycle;Max_cycle;Signal;HPM_P1;HPM_P2
2022/07/30 00:02:18;;;;;;;6.97;3.63;;;18.70;99.90;;;;;;5037196;28;20052;-70
2022/07/30 00:04:45;;;;;;;6.25;3.35;;;18.70;99.90;;;;;;5037396;28;20033;-70
2022/07/30 00:07:11;;;;;;;7.10;3.80;;;18.70;99.90;;;;;;5037044;28;20033;-70
2022/07/30 00:09:37;;;;;;;5.63;3.60;;;18.70;99.90;;;;;;5037232;28;20041;-70
2022/07/30 00:12:04;;;;;;;6.25;3.78;;;18.60;99.90;;;;;;5036943;28;20045;-70
2022/07/30 00:14:30;;;;;;;5.00;3.58;;;18.50;99.90;;;;;;5036817;28;20049;-70
2022/07/30 00:16:55;;;;;;;6.22;3.55;;;18.40;99.90;;;;;;5036925;28;20099;-70
2022/07/30 00:19:21;;;;;;;7.25;3.97;;;18.30;99.90;;;;;;5036568;28;20347;-70
2022/07/30 00:21:47;;;;;;;7.30;4.25;;;18.30;99.90;;;;;;5036987;28;20041;-70
2022/07/30 00:24:12;;;;;;;6.53;3.95;;;18.30;99.90;;;;;;5036433;28;20489;-70
2022/07/30 00:26:38;;;;;;;8.10;3.95;;;18.30;99.90;;;;;;5036803;28;20041;-70
2022/07/30 00:29:05;;;;;;;6.45;4.00;;;18.30;99.90;;;;;;5036643;28;20048;-70
2022/07/30 00:31:31;;;;;;;6.75;3.40;;;18.30;99.90;;;;;;5036908;28;20102;-70
2022/07/30 00:33:56;;;;;;;6.05;3.85;;;18.30;99.90;;;;;;5035713;28;20423;-70
2022/07/30 00:36:22;;;;;;;6.88;4.07;;;18.20;99.90;;;;;;5036518;28;20124;-70
2022/07/30 00:38:48;;;;;;;8.40;4.20;;;18.30;99.90;;;;;;5036881;28;20049;-70
2022/07/30 00:41:14;;;;;;;6.80;4.35;;;18.20;99.90;;;;;;5036664;28;20073;-70
2022/07/30 00:43:40;;;;;;;5.53;4.30;;;18.20;99.90;;;;;;5036537;28;20104;-70
2022/07/30 00:46:05;;;;;;;7.90;4.60;;;18.20;99.90;;;;;;5036391;28;20029;-70
2022/07/30 00:48:31;;;;;;;6.32;4.60;;;18.10;99.90;;;;;;5036437;28;20480;-70
2022/07/30 00:50:57;;;;;;;11.82;4.97;;;18.00;99.90;;;;;;5036600;28;20049;-70
2022/07/30 00:53:22;;;;;;;7.03;5.00;;;17.90;99.90;;;;;;5036134;28;20045;-70
2022/07/30 00:55:48;;;;;;;6.28;4.63;;;17.90;99.90;;;;;;5036333;28;20048;-70
2022/07/30 00:58:14;;;;;;;6.00;4.63;;;17.80;99.90;;;;;;5036307;28;20339;-70
2022/07/30 01:00:39;;;;;;;11.60;4.90;;;17.80;99.90;;;;;;5036598;28;20146;-70
2022/07/30 01:03:05;;;;;;;11.20;5.47;;;17.80;99.90;;;;;;5018963;28;20033;-70
2022/07/30 01:05:31;;;;;;;7.22;4.60;;;17.80;99.90;;;;;;5036463;28;20038;-70
2022/07/30 01:07:57;;;;;;;6.63;4.70;;;17.90;99.90;;;;;;5036498;28;20044;-70
2022/07/30 01:10:23;;;;;;;10.15;5.32;;;17.90;99.90;;;;;;5036473;28;20045;-70
2022/07/30 01:12:51;;;;;;;7.90;5.30;;;17.90;99.90;;;;;;5036123;28;20044;-70
2022/07/30 01:15:17;;;;;;;8.40;4.68;;;17.90;99.90;;;;;;5036178;28;20119;-70
2022/07/30 01:17:48;;;;;;;6.97;4.60;;;17.90;99.90;;;;;;5036170;28;20053;-70
2022/07/30 01:20:21;;;;;;;7.30;4.88;;;17.80;99.90;;;;;;5035968;28;20093;-70
2022/07/30 01:22:53;;;;;;;6.32;4.68;;;17.80;99.90;;;;;;5035734;28;20447;-70
2022/07/30 01:25:31;;;;;;;9.77;5.40;;;17.80;99.90;;;;;;5036462;28;20042;-70
2022/07/30 01:28:03;;;;;;;6.28;4.20;;;17.70;99.90;;;;;;5036131;28;20046;-70
2022/07/30 01:30:33;;;;;;;5.40;3.47;;;17.70;99.90;;;;;;5036153;28;20168;-70
2022/07/30 01:33:00;;;;;;;4.55;3.45;;;17.60;99.90;;;;;;5018565;28;20462;-70
2022/07/30 01:35:29;;;;;;;3.80;3.05;;;17.60;99.90;;;;;;5036075;28;20054;-70
2022/07/30 01:37:56;;;;;;;3.08;2.50;;;17.60;99.90;;;;;;5036041;28;20050;-70
2022/07/30 01:40:23;;;;;;;2.60;2.33;;;17.60;99.90;;;;;;5018797;28;20107;-70
2022/07/30 01:42:55;;;;;;;3.50;2.67;;;17.60;99.90;;;;;;5036010;28;20041;-70
2022/07/30 01:45:23;;;;;;;2.85;2.30;;;17.60;99.90;;;;;;5036841;28;20403;-70
2022/07/30 01:47:52;;;;;;;2.92;2.22;;;17.60;99.90;;;;;;5039729;28;20300;-70
2022/07/30 01:50:20;;;;;;;2.72;1.48;;;17.50;99.90;;;;;;5039868;28;20112;-70
2022/07/30 01:52:48;;;;;;;4.30;1.75;;;17.50;99.90;;;;;;5039114;28;20111;-70
2022/07/30 01:55:19;;;;;;;3.40;2.50;;;17.40;99.90;;;;;;5039648;28;20113;-70
2022/07/30 01:57:47;;;;;;;5.00;2.00;;;17.40;99.90;;;;;;5039836;28;20045;-70
2022/07/30 02:00:13;;;;;;;4.70;2.20;;;17.40;99.90;;;;;;5039701;28;20081;-70
2022/07/30 02:02:40;;;;;;;2.75;2.08;;;17.30;99.90;;;;;;5022171;28;20087;-70
2022/07/30 02:05:07;;;;;;;3.83;2.50;;;17.30;99.90;;;;;;5039321;28;20042;-70
2022/07/30 02:07:44;;;;;;;2.90;2.53;;;17.40;99.90;;;;;;5039465;28;20052;-70
2022/07/30 02:10:17;;;;;;;5.70;2.88;;;17.40;99.90;;;;;;5039457;28;20034;-70
2022/07/30 02:12:51;;;;;;;3.00;2.30;;;17.40;99.90;;;;;;5039301;28;20045;-70
2022/07/30 02:15:44;;;;;;;3.22;2.20;;;17.40;99.90;;;;;;5039511;28;20080;-70
2022/07/30 02:18:32;;;;;;;3.22;2.30;;;17.30;99.90;;;;;;5038966;28;20065;-70
2022/07/30 02:21:06;;;;;;;3.25;2.05;;;17.30;99.90;;;;;;5039190;28;20046;-70
2022/07/30 02:23:39;;;;;;;3.28;2.47;;;17.20;99.90;;;;;;5038713;28;20427;-70
2022/07/30 02:26:07;;;;;;;4.28;2.22;;;17.30;99.90;;;;;;5038907;28;20043;-70
2022/07/30 02:28:37;;;;;;;2.78;2.45;;;17.30;99.90;;;;;;5039258;28;20099;-70
2022/07/30 02:31:06;;;;;;;5.03;3.38;;;17.40;99.90;;;;;;5038999;28;20068;-70
2022/07/30 02:33:41;;;;;;;4.57;3.78;;;17.40;99.90;;;;;;5039070;28;20039;-70
2022/07/30 02:36:09;;;;;;;4.15;3.17;;;17.40;99.90;;;;;;5039123;28;20033;-70
2022/07/30 02:38:36;;;;;;;5.25;3.60;;;17.30;99.90;;;;;;5038786;28;20318;-70
2022/07/30 02:41:05;;;;;;;3.78;3.25;;;17.30;99.90;;;;;;5038837;28;20411;-70
2022/07/30 02:43:33;;;;;;;5.22;3.80;;;17.20;99.90;;;;;;5038740;28;20052;-70
2022/07/30 02:46:00;;;;;;;3.40;3.08;;;17.30;99.90;;;;;;5038970;28;20331;-70
2022/07/30 02:48:27;;;;;;;5.32;3.13;;;17.20;99.90;;;;;;5038614;28;20051;-70
2022/07/30 02:50:55;;;;;;;3.90;3.33;;;17.10;99.90;;;;;;5038526;28;20472;-71
2022/07/30 02:53:22;;;;;;;5.03;3.28;;;17.10;99.90;;;;;;5038256;28;20139;-70
2022/07/30 02:55:51;;;;;;;2.90;2.42;;;17.10;99.90;;;;;;5038669;28;20096;-70
2022/07/30 02:58:20;;;;;;;2.88;2.10;;;16.90;99.90;;;;;;5037718;28;20400;-70
2022/07/30 03:00:47;;;;;;;2.33;1.70;;;16.90;99.90;;;;;;5038382;28;20042;-70
2022/07/30 03:03:15;;;;;;;1.98;1.70;;;16.80;99.90;;;;;;5038354;28;20056;-70
2022/07/30 03:05:41;;;;;;;7.50;2.70;;;16.70;99.90;;;;;;5038160;28;20042;-70
2022/07/30 03:08:08;;;;;;;2.80;2.15;;;16.70;99.90;;;;;;5038266;28;20095;-70
2022/07/30 03:10:35;;;;;;;3.40;2.33;;;16.70;99.90;;;;;;5038161;28;20338;-70
2022/07/30 03:13:05;;;;;;;2.90;2.60;;;16.60;99.90;;;;;;5038231;28;20096;-70
2022/07/30 03:15:34;;;;;;;2.33;2.10;;;16.70;99.90;;;;;;5038431;28;20116;-70
2022/07/30 03:18:00;;;;;;;3.55;2.30;;;16.70;99.90;;;;;;5037932;28;20304;-70
2022/07/30 03:20:30;;;;;;;2.67;2.00;;;16.60;99.90;;;;;;5038122;28;20351;-70
2022/07/30 03:22:58;;;;;;;2.63;2.42;;;16.60;99.90;;;;;;5037420;28;20449;-70
2022/07/30 03:25:26;;;;;;;3.08;2.22;;;16.70;99.90;;;;;;5037831;28;20049;-70
2022/07/30 03:27:53;;;;;;;2.53;2.20;;;16.60;99.90;;;;;;5037964;28;20042;-70
2022/07/30 03:30:20;;;;;;;4.90;2.33;;;16.60;99.90;;;;;;5038067;28;20116;-70
2022/07/30 03:32:46;;;;;;;3.78;2.83;;;16.60;99.90;;;;;;5037651;28;20418;-70
2022/07/30 03:35:14;;;;;;;4.32;2.80;;;16.70;99.90;;;;;;5020606;28;20041;-70
2022/07/30 03:37:41;;;;;;;6.95;4.07;;;16.70;99.90;;;;;;5037850;28;20049;-70
2022/07/30 03:40:08;;;;;;;7.40;4.90;;;16.70;99.90;;;;;;5037665;28;20091;-70
2022/07/30 03:42:35;;;;;;;7.22;4.43;;;16.80;99.90;;;;;;5037813;28;20037;-70
2022/07/30 03:45:20;;;;;;;8.50;6.28;;;16.80;99.90;;;;;;5037643;28;20033;-70
2022/07/30 03:47:46;;;;;;;6.67;5.17;;;16.70;99.90;;;;;;5035975;28;20048;-70
2022/07/30 03:50:14;;;;;;;6.38;4.45;;;16.70;99.90;;;;;;5037515;28;20041;-70
2022/07/30 03:52:40;;;;;;;7.25;5.25;;;16.70;99.90;;;;;;5037187;28;20045;-73
2022/07/30 03:55:09;;;;;;;7.50;5.47;;;16.60;99.90;;;;;;5037350;28;20069;-70
2022/07/30 03:57:35;;;;;;;10.80;5.82;;;16.50;99.90;;;;;;5037506;28;20121;-70
2022/07/30 04:00:05;;;;;;;10.50;5.50;;;16.60;99.90;;;;;;5037177;28;20091;-70
2022/07/30 04:02:31;;;;;;;8.32;5.88;;;16.60;99.90;;;;;;5037212;28;20048;-70
2022/07/30 04:04:57;;;;;;;6.05;5.30;;;16.60;99.90;;;;;;5020059;28;20037;-70
2022/07/30 04:07:22;;;;;;;9.23;5.90;;;16.60;99.90;;;;;;5037308;28;20041;-70
2022/07/30 04:09:48;;;;;;;6.55;5.40;;;16.60;99.90;;;;;;5036892;28;20069;-70
2022/07/30 04:12:13;;;;;;;8.80;6.15;;;16.60;99.90;;;;;;5037199;28;20083;-70
2022/07/30 04:14:43;;;;;;;8.73;6.45;;;16.60;99.90;;;;;;5037139;28;20049;-70
2022/07/30 04:17:19;;;;;;;9.32;7.20;;;16.50;99.90;;;;;;5037002;28;20426;-70
2022/07/30 04:19:51;;;;;;;10.32;7.28;;;16.50;99.90;;;;;;5037008;28;20060;-70
2022/07/30 04:22:26;;;;;;;9.27;6.97;;;16.50;99.90;;;;;;5036901;28;20326;-70
2022/07/30 04:24:52;;;;;;;12.15;6.65;;;16.50;99.90;;;;;;5036359;28;20446;-70
2022/07/30 04:27:19;;;;;;;9.65;6.88;;;16.60;99.90;;;;;;5036772;28;20052;-70
2022/07/30 04:29:45;;;;;;;10.57;7.60;;;16.60;99.90;;;;;;5036737;28;20041;-70
2022/07/30 04:32:12;;;;;;;9.85;7.72;;;16.70;99.90;;;;;;5036733;28;20377;-70
2022/07/30 04:34:49;;;;;;;8.43;7.07;;;16.70;99.90;;;;;;5036649;28;20038;-70
2022/07/30 04:37:17;;;;;;;12.32;7.03;;;16.70;99.90;;;;;;5036812;28;20124;-70
2022/07/30 04:39:43;;;;;;;10.30;6.88;;;16.70;99.90;;;;;;5036576;28;20496;-70
2022/07/30 04:42:09;;;;;;;8.38;6.55;;;16.60;99.90;;;;;;5036434;28;20041;-70
2022/07/30 04:44:35;;;;;;;10.18;7.20;;;16.50;99.90;;;;;;5036823;28;20425;-70
2022/07/30 04:47:01;;;;;;;12.55;7.05;;;16.60;99.90;;;;;;5036514;28;20076;-70
2022/07/30 04:49:27;;;;;;;8.30;6.22;;;16.70;99.90;;;;;;5036679;28;20083;-70
2022/07/30 04:51:54;;;;;;;9.73;6.85;;;16.80;99.90;;;;;;5036364;28;20046;-70
2022/07/30 04:54:22;;;;;;;9.55;7.05;;;16.80;99.90;;;;;;5036137;28;20053;-70
2022/07/30 04:56:49;;;;;;;9.50;7.03;;;16.90;99.90;;;;;;5036364;28;20422;-70
2022/07/30 04:59:17;;;;;;;11.55;8.00;;;17.00;99.90;;;;;;5036196;28;20423;-70
2022/07/30 05:01:47;;;;;;;7.00;6.05;;;17.00;99.90;;;;;;5036363;28;20057;-70
2022/07/30 05:04:15;;;;;;;9.40;7.05;;;17.10;99.90;;;;;;5036279;28;20045;-70
2022/07/30 05:06:42;;;;;;;9.02;6.70;;;17.10;99.90;;;;;;5036240;28;20038;-70
2022/07/30 05:09:08;;;;;;;8.30;6.97;;;17.20;99.90;;;;;;5036538;28;20042;-70
2022/07/30 05:11:34;;;;;;;12.00;8.48;;;17.30;99.90;;;;;;5036345;28;20046;-70
2022/07/30 05:13:59;;;;;;;11.10;8.10;;;17.40;99.90;;;;;;5036372;28;20042;-70
2022/07/30 05:16:26;;;;;;;10.52;8.93;;;17.40;99.90;;;;;;5036308;28;20045;-70
2022/07/30 05:18:52;;;;;;;11.02;8.32;;;17.60;99.90;;;;;;5036093;28;20457;-70
2022/07/30 05:21:17;;;;;;;11.27;9.05;;;17.70;99.90;;;;;;5038133;28;20120;-70
2022/07/30 05:23:43;;;;;;;14.25;9.20;;;17.70;99.90;;;;;;5040086;28;20039;-70
2022/07/30 05:26:10;;;;;;;15.38;11.32;;;17.90;99.90;;;;;;5040147;28;20423;-70
2022/07/30 05:28:35;;;;;;;16.40;11.45;;;18.00;99.90;;;;;;5040130;28;20037;-70
2022/07/30 05:31:01;;;;;;;16.25;11.23;;;18.20;99.90;;;;;;5040362;28;20161;-70
2022/07/30 05:33:27;;;;;;;17.95;12.13;;;18.30;99.90;;;;;;5040235;28;20119;-70
2022/07/30 05:35:53;;;;;;;15.50;11.90;;;18.40;99.90;;;;;;5040175;28;20049;-70
2022/07/30 05:38:19;;;;;;;19.30;13.55;;;18.50;99.90;;;;;;5039841;28;20099;-70
2022/07/30 05:40:45;;;;;;;24.08;17.23;;;18.60;99.90;;;;;;5040052;28;20041;-70
2022/07/30 05:43:11;;;;;;;24.15;17.63;;;18.50;99.90;;;;;;5040008;28;20041;-70
2022/07/30 05:45:37;;;;;;;24.70;18.55;;;18.40;99.90;;;;;;5039883;28;20060;-70
2022/07/30 05:48:03;;;;;;;20.23;16.58;;;18.10;99.90;;;;;;5039936;28;20120;-70
2022/07/30 05:50:29;;;;;;;30.02;19.88;;;18.10;99.90;;;;;;5039670;28;20037;-70
2022/07/30 05:52:57;;;;;;;24.80;15.50;;;18.10;99.90;;;;;;5039491;28;20124;-70
2022/07/30 05:55:22;;;;;;;24.42;17.77;;;18.10;99.90;;;;;;5039820;28;20041;-70
2022/07/30 05:57:48;;;;;;;29.55;18.13;;;18.40;99.90;;;;;;5039732;28;20052;-70
2022/07/30 06:00:14;;;;;;;27.60;19.80;;;18.20;99.90;;;;;;5039522;28;20052;-70
2022/07/30 06:02:40;;;;;;;28.95;20.30;;;17.90;99.90;;;;;;5039484;28;20187;-69
2022/07/30 06:05:07;;;;;;;31.45;20.00;;;17.70;99.90;;;;;;5039239;28;20112;-70
2022/07/30 06:07:33;;;;;;;29.75;19.88;;;17.90;99.90;;;;;;5039645;28;20439;-70
2022/07/30 06:10:00;;;;;;;26.83;18.17;;;18.10;99.90;;;;;;5039342;28;20493;-70
2022/07/30 06:12:30;;;;;;;25.88;18.48;;;18.10;99.90;;;;;;5039400;28;20338;-70
2022/07/30 06:14:57;;;;;;;24.75;17.17;;;18.30;99.90;;;;;;5039492;28;20033;-70
2022/07/30 06:17:22;;;;;;;26.92;18.00;;;18.30;99.90;;;;;;5039437;28;20041;-70
2022/07/30 06:19:49;;;;;;;26.67;17.17;;;18.40;99.90;;;;;;5039215;28;20099;-70
2022/07/30 06:22:16;;;;;;;23.17;17.05;;;18.30;99.90;;;;;;5039080;28;20128;-69
2022/07/30 06:24:41;;;;;;;26.40;17.58;;;18.20;99.90;;;;;;5021121;28;20038;-69
2022/07/30 06:27:07;;;;;;;25.33;17.80;;;18.00;99.90;;;;;;5039139;28;20079;-70
2022/07/30 06:29:33;;;;;;;24.05;16.13;;;18.00;99.90;;;;;;5039150;28;20339;-70
2022/07/30 06:31:59;;;;;;;22.73;16.73;;;18.00;99.90;;;;;;5039099;28;20095;-71
2022/07/30 06:34:24;;;;;;;22.80;15.25;;;18.10;99.90;;;;;;5039053;28;20378;-70
2022/07/30 06:36:50;;;;;;;18.38;15.23;;;18.10;99.90;;;;;;5039129;28;20048;-70
2022/07/30 06:39:16;;;;;;;20.58;15.15;;;18.40;99.90;;;;;;5038860;28;20050;-70
2022/07/30 06:41:41;;;;;;;21.00;14.73;;;18.40;99.90;;;;;;5038920;28;20049;-70
2022/07/30 06:44:07;;;;;;;22.05;13.90;;;18.60;99.90;;;;;;5038689;28;20106;-70
2022/07/30 06:46:33;;;;;;;21.35;13.43;;;18.70;99.90;;;;;;5038714;28;20338;-70
2022/07/30 06:48:58;;;;;;;18.67;12.73;;;18.90;99.90;;;;;;5038470;28;20045;-70
2022/07/30 06:51:24;;;;;;;18.42;13.32;;;19.00;99.90;;;;;;5038701;28;20080;-70
2022/07/30 06:53:49;;;;;;;19.25;13.55;;;19.10;99.90;;;;;;5038328;28;20033;-69
2022/07/30 06:56:15;;;;;;;27.85;14.27;;;19.20;99.90;;;;;;5021131;28;20116;-70
2022/07/30 06:58:41;;;;;;;25.85;13.70;;;19.30;99.90;;;;;;5021066;28;20041;-70
2022/07/30 07:01:06;;;;;;;22.83;13.73;;;19.40;99.90;;;;;;5038525;28;20103;-70
2022/07/30 07:03:32;;;;;;;22.73;13.95;;;19.40;99.90;;;;;;5038269;28;20431;-70
2022/07/30 07:05:58;;;;;;;18.40;12.57;;;19.70;99.90;;;;;;5038219;28;20124;-70
2022/07/30 07:08:23;;;;;;;26.55;14.23;;;20.00;99.90;;;;;;5038294;28;20075;-70
2022/07/30 07:10:49;;;;;;;24.02;14.40;;;20.00;99.90;;;;;;5038368;28;20109;-70
2022/07/30 07:13:15;;;;;;;21.50;13.00;;;20.00;99.90;;;;;;5038145;28;20045;-70
2022/07/30 07:15:41;;;;;;;21.33;12.50;;;20.20;99.90;;;;;;5038312;28;20045;-70
2022/07/30 07:18:07;;;;;;;21.42;12.20;;;20.30;99.90;;;;;;5037933;28;20080;-70
2022/07/30 07:20:33;;;;;;;22.55;11.82;;;20.50;99.90;;;;;;5038213;28;20155;-70
2022/07/30 07:23:00;;;;;;;19.90;10.88;;;20.70;99.90;;;;;;5019986;28;20172;-70
2022/07/30 07:25:26;;;;;;;17.15;11.02;;;20.80;99.90;;;;;;5038246;28;20167;-70
2022/07/30 07:27:52;;;;;;;15.68;10.75;;;20.80;99.90;;;;;;5037758;28;20481;-70
2022/07/30 07:30:17;;;;;;;22.65;10.52;;;20.80;99.90;;;;;;5038052;28;20112;-70
2022/07/30 07:32:43;;;;;;;14.48;9.35;;;21.10;99.90;;;;;;5037572;28;20072;-70
2022/07/30 07:35:09;;;;;;;15.75;10.13;;;21.20;99.90;;;;;;5020903;28;20327;-70
2022/07/30 07:37:34;;;;;;;16.90;9.38;;;21.30;99.90;;;;;;5020050;28;20337;-70
2022/07/30 07:40:00;;;;;;;17.73;9.23;;;21.30;99.90;;;;;;5037692;28;20051;-70
2022/07/30 07:42:26;;;;;;;15.52;7.85;;;21.40;99.90;;;;;;5037505;28;20423;-70
2022/07/30 07:44:51;;;;;;;15.95;9.23;;;21.40;99.90;;;;;;5037190;28;20037;-70
2022/07/30 07:47:17;;;;;;;20.48;8.98;;;21.60;99.90;;;;;;5037439;28;20049;-67
2022/07/30 07:49:43;;;;;;;19.48;9.88;;;21.60;99.90;;;;;;5019940;28;20042;-66
2022/07/30 07:52:08;;;;;;;17.75;8.88;;;21.50;99.90;;;;;;5020175;28;20041;-66
2022/07/30 07:54:34;;;;;;;16.98;8.70;;;21.50;99.90;;;;;;5036960;28;20041;-66
2022/07/30 07:57:00;;;;;;;22.98;9.63;;;21.60;99.90;;;;;;5037603;28;20041;-66
2022/07/30 07:59:26;;;;;;;14.57;8.45;;;21.50;99.90;;;;;;5037214;28;20345;-68
2022/07/30 08:01:51;;;;;;;14.75;8.48;;;21.50;99.90;;;;;;5037239;28;20318;-68
2022/07/30 08:04:17;;;;;;;13.75;8.02;;;21.60;99.90;;;;;;5037303;28;20064;-68
2022/07/30 08:06:43;;;;;;;18.30;8.18;;;21.40;99.90;;;;;;5037279;28;20048;-66
2022/07/30 08:09:08;;;;;;;13.63;8.93;;;21.60;99.90;;;;;;5037771;28;20035;-66
2022/07/30 08:11:34;;;;;;;12.85;8.43;;;21.50;99.90;;;;;;5039202;28;20049;-66
2022/07/30 08:14:00;;;;;;;17.70;8.35;;;21.60;99.90;;;;;;5019862;28;20304;-66
2022/07/30 08:16:25;;;;;;;13.88;7.68;;;21.70;99.90;;;;;;5037068;28;20069;-66
2022/07/30 08:18:51;;;;;;;15.63;7.40;;;21.80;99.90;;;;;;5036784;28;20085;-66
2022/07/30 08:21:17;;;;;;;14.10;7.43;;;21.90;99.90;;;;;;5036984;28;20041;-66
2022/07/30 08:23:42;;;;;;;14.25;7.13;;;21.90;99.90;;;;;;5036257;28;20442;-66
2022/07/30 08:26:08;;;;;;;11.30;6.10;;;22.10;99.90;;;;;;5036903;28;20045;-66
2022/07/30 08:28:35;;;;;;;14.18;6.82;;;21.90;99.90;;;;;;5036764;28;20472;-66
2022/07/30 08:31:00;;;;;;;12.77;5.80;;;22.00;99.90;;;;;;5036699;28;20116;-66
2022/07/30 08:33:26;;;;;;;13.75;5.90;;;22.20;99.90;;;;;;5036580;28;20125;-66
2022/07/30 08:35:52;;;;;;;16.23;6.30;;;22.40;99.90;;;;;;5036759;28;20042;-66
2022/07/30 08:38:17;;;;;;;12.30;6.07;;;22.40;99.90;;;;;;5036650;28;20049;-66
2022/07/30 08:40:43;;;;;;;13.93;6.18;;;22.40;99.90;;;;;;5036800;28;20045;-66
2022/07/30 08:43:09;;;;;;;12.75;6.05;;;22.60;99.90;;;;;;5036643;28;20045;-66
2022/07/30 08:45:36;;;;;;;11.30;5.35;;;22.70;99.90;;;;;;5036455;28;20076;-68
2022/07/30 08:48:05;;;;;;;9.90;5.05;;;22.90;99.90;;;;;;5036835;28;20087;-66
2022/07/30 08:50:32;;;;;;;9.07;4.88;;;22.90;99.90;;;;;;5036605;28;20041;-66
2022/07/30 08:53:00;;;;;;;9.02;4.13;;;22.80;99.90;;;;;;5019479;28;20130;-66
2022/07/30 08:55:25;;;;;;;9.95;4.80;;;22.90;99.90;;;;;;5035132;28;20045;-66
2022/07/30 08:57:51;;;;;;;12.48;5.20;;;22.80;99.90;;;;;;5036709;28;20063;-66
2022/07/30 09:00:18;;;;;;;11.85;4.80;;;22.60;99.90;;;;;;5036176;28;20120;-66
2022/07/30 09:02:43;;;;;;;10.32;4.70;;;22.30;99.90;;;;;;5036404;28;20176;-66
2022/07/30 09:05:10;;;;;;;18.88;4.70;;;22.50;99.90;;;;;;5036633;28;20409;-66
2022/07/30 09:07:36;;;;;;;10.57;4.22;;;22.70;99.90;;;;;;5036364;28;20073;-66
2022/07/30 09:10:07;;;;;;;12.82;4.38;;;22.90;99.90;;;;;;5036436;28;20030;-66
2022/07/30 09:12:35;;;;;;;11.23;4.35;;;22.90;99.90;;;;;;5036293;28;20037;-66
2022/07/30 09:15:04;;;;;;;14.43;4.70;;;22.90;99.90;;;;;;5036189;28;20135;-67
2022/07/30 09:17:50;;;;;;;9.38;4.40;;;22.50;99.90;;;;;;5036231;28;20069;-66
2022/07/30 09:20:16;;;;;;;6.65;3.33;;;22.50;99.90;;;;;;4996886;28;20054;-66
2022/07/30 09:22:50;;;;;;;6.57;3.13;;;22.90;99.90;;;;;;4996820;28;20070;-66
2022/07/30 09:25:34;;;;;;;13.43;4.20;;;23.20;99.90;;;;;;4996545;28;20127;-67
2022/07/30 09:28:01;;;;;;;6.25;2.75;;;23.60;99.90;;;;;;4995848;28;20045;-67
2022/07/30 09:30:48;;;;;;;8.45;3.05;;;23.80;99.90;;;;;;4996704;28;20053;-66
2022/07/30 09:33:15;;;;;;;9.27;3.65;;;23.80;99.90;;;;;;4992783;28;20513;-66
2022/07/30 09:35:42;;;;;;;5.85;3.10;;;23.90;99.90;;;;;;4996937;28;20050;-66
2022/07/30 09:38:08;;;;;;;12.07;3.63;;;23.80;99.90;;;;;;4996686;28;20428;-66
2022/07/30 09:40:34;;;;;;;10.27;3.70;;;23.80;99.90;;;;;;4996954;28;20133;-66
2022/07/30 09:43:06;;;;;;;8.43;3.00;;;23.90;99.90;;;;;;4996668;28;20047;-67
2022/07/30 09:45:33;;;;;;;10.07;4.40;;;24.30;99.90;;;;;;4996604;28;20482;-79
2022/07/30 09:47:59;;;;;;;11.85;3.00;;;23.90;99.90;;;;;;4995525;28;20073;-66
2022/07/30 09:50:25;;;;;;;8.93;2.78;;;23.70;99.90;;;;;;4996590;28;20043;-66
2022/07/30 09:52:52;;;;;;;11.30;3.58;;;23.90;99.90;;;;;;4996849;28;20042;-67
2022/07/30 09:55:32;;;;;;;8.23;2.90;;;24.00;99.90;;;;;;4996232;28;20043;-67
2022/07/30 09:58:04;;;;;;;10.45;2.90;;;24.20;99.90;;;;;;4995792;28;20046;-67
2022/07/30 10:00:32;;;;;;;7.90;3.03;;;24.30;99.90;;;;;;4996570;28;20045;-67
2022/07/30 10:02:59;;;;;;;9.68;3.53;;;24.50;99.90;;;;;;4996323;28;20104;-67
2022/07/30 10:05:25;;;;;;;8.35;3.28;;;24.80;99.90;;;;;;4996690;28;20038;-67
2022/07/30 10:07:59;;;;;;;10.10;3.35;;;24.50;99.90;;;;;;4999342;28;20060;-67
2022/07/30 10:10:29;;;;;;;7.15;2.92;;;24.40;99.90;;;;;;5000265;28;20097;-83
2022/07/30 10:13:00;;;;;;;10.30;2.58;;;24.60;99.90;;;;;;4999984;28;20042;-71
2022/07/30 10:15:31;;;;;;;9.38;2.72;;;24.50;99.90;;;;;;5000092;28;20042;-68
2022/07/30 10:17:57;;;;;;;11.00;3.05;;;24.80;99.90;;;;;;5001810;28;20109;-69
2022/07/30 10:20:24;;;;;;;4.80;2.83;;;25.20;99.90;;;;;;5039395;28;20362;-68
2022/07/30 10:22:50;;;;;;;7.50;2.60;;;25.20;99.90;;;;;;5039241;28;20378;-68
2022/07/30 10:25:21;;;;;;;12.35;3.03;;;25.30;99.90;;;;;;5038765;28;20041;-68
2022/07/30 10:27:48;;;;;;;7.28;2.97;;;25.70;99.90;;;;;;5038968;28;20106;-68
2022/07/30 10:30:14;;;;;;;6.43;3.13;;;26.00;99.90;;;;;;5039282;28;20045;-73
2022/07/30 10:32:40;;;;;;;12.90;2.97;;;26.00;99.90;;;;;;5005009;28;20443;-83
2022/07/30 10:35:07;;;;;;;7.95;2.80;;;25.60;99.90;;;;;;5004907;28;20067;-84
2022/07/30 10:37:35;;;;;;;7.40;2.72;;;25.30;99.90;;;;;;5005019;28;20052;-84
2022/07/30 10:40:31;;;;;;;8.38;2.67;;;25.30;99.90;;;;;;5005375;28;20423;-83
2022/07/30 10:43:16;;;;;;;9.57;2.63;;;25.00;99.90;;;;;;5021338;28;20049;-83
2022/07/30 10:46:15;;;;;;;7.25;2.42;;;24.80;99.90;;;;;;5021387;28;20041;-83
2022/07/30 10:48:40;;;;;;;7.10;2.65;;;24.50;99.90;;;;;;5004703;28;20099;-84
2022/07/30 10:51:06;;;;;;;5.53;2.72;;;24.40;99.90;;;;;;5005119;28;20049;-84
2022/07/30 10:53:47;;;;;;;8.30;2.90;;;24.60;99.90;;;;;;5020964;28;20427;-83
2022/07/30 10:56:23;;;;;;;6.93;2.83;;;24.70;99.90;;;;;;5021104;28;20323;-68
2022/07/30 10:59:06;;;;;;;4.97;2.22;;;24.90;99.90;;;;;;5038428;28;20103;-67
2022/07/30 11:01:47;;;;;;;7.03;2.65;;;25.30;99.90;;;;;;5038280;28;20038;-67
2022/07/30 11:04:17;;;;;;;8.00;2.38;;;25.80;99.90;;;;;;5038662;28;20068;-67
2022/07/30 11:06:43;;;;;;;8.00;2.72;;;25.90;99.80;;;;;;5038389;28;20439;-69
2022/07/30 11:09:34;;;;;;;9.65;2.10;;;25.60;99.90;;;;;;5038491;28;20076;-67
2022/07/30 11:12:00;;;;;;;11.00;2.40;;;25.80;99.90;;;;;;5038403;28;20037;-68
2022/07/30 11:14:45;;;;;;;9.88;2.33;;;25.80;99.90;;;;;;5038076;28;20124;-68
2022/07/30 11:17:12;;;;;;;6.85;2.30;;;26.20;99.90;;;;;;5038448;28;20055;-68
2022/07/30 11:20:08;;;;;;;7.75;2.40;;;26.40;99.90;;;;;;5037482;28;20045;-70
2022/07/30 11:22:39;;;;;;;5.32;2.42;;;26.50;99.80;;;;;;4998873;28;20049;-82
2022/07/30 11:25:09;;;;;;;9.60;2.10;;;26.50;99.90;;;;;;5037688;28;20073;-69
2022/07/30 11:27:36;;;;;;;7.18;2.28;;;26.40;99.90;;;;;;5038123;28;20060;-69
2022/07/30 11:30:28;;;;;;;7.47;2.20;;;26.20;99.80;;;;;;5037907;28;20041;-70
2022/07/30 11:33:03;;;;;;;7.22;2.30;;;26.10;99.80;;;;;;5037758;28;20107;-70
2022/07/30 11:35:30;;;;;;;6.60;2.20;;;26.00;99.90;;;;;;5038199;28;20118;-69
2022/07/30 11:38:07;;;;;;;7.63;2.42;;;25.90;99.90;;;;;;5037897;28;20342;-68
2022/07/30 11:40:43;;;;;;;7.68;2.50;;;26.00;99.60;;;;;;5038347;28;20045;-67
2022/07/30 11:43:28;;;;;;;7.55;2.50;;;25.80;99.50;;;;;;5020129;28;20046;-68
2022/07/30 11:46:21;;;;;;;6.03;2.38;;;25.70;99.80;;;;;;5037679;28;20045;-67
2022/07/30 11:49:04;;;;;;;6.15;2.92;;;25.90;99.80;;;;;;5037557;28;20055;-70
2022/07/30 11:51:40;;;;;;;8.32;2.75;;;26.40;99.60;;;;;;5037558;28;20318;-68
2022/07/30 11:54:09;;;;;;;6.28;2.20;;;26.40;99.40;;;;;;5037151;28;20034;-67
2022/07/30 11:56:35;;;;;;;5.47;1.80;;;26.60;99.50;;;;;;5037697;28;20038;-67
2022/07/30 11:59:06;;;;;;;9.40;3.00;;;26.20;99.60;;;;;;5037407;28;20073;-67
2022/07/30 12:01:33;;;;;;;8.15;2.10;;;26.30;99.40;;;;;;5037365;28;20033;-69
2022/07/30 12:04:04;;;;;;;5.22;2.10;;;26.60;99.20;;;;;;5037125;28;20068;-66
2022/07/30 12:06:30;;;;;;;5.18;2.00;;;26.50;98.90;;;;;;5037080;28;20041;-68
2022/07/30 12:08:57;;;;;;;6.38;1.75;;;26.50;98.80;;;;;;5037332;28;20073;-68
2022/07/30 12:11:24;;;;;;;7.20;2.20;;;26.80;98.90;;;;;;5037117;28;20065;-68
2022/07/30 12:14:00;;;;;;;12.98;2.08;;;27.20;98.80;;;;;;5037100;28;20055;-68
2022/07/30 12:16:27;;;;;;;4.72;1.67;;;27.20;98.10;;;;;;5036860;28;20045;-68
2022/07/30 12:18:53;;;;;;;7.07;1.70;;;27.40;98.70;;;;;;5036892;28;20054;-68
2022/07/30 12:21:20;;;;;;;5.13;1.70;;;27.80;98.30;;;;;;5036847;28;20057;-68
2022/07/30 12:24:12;;;;;;;5.88;1.52;;;28.10;98.10;;;;;;5036200;28;20438;-68
2022/07/30 12:26:38;;;;;;;4.30;1.52;;;28.10;97.90;;;;;;5036868;28;20087;-68
2022/07/30 12:29:12;;;;;;;5.32;1.75;;;28.30;98.20;;;;;;5036609;28;20393;-68
2022/07/30 12:31:39;;;;;;;4.25;1.50;;;28.90;98.10;;;;;;5037040;28;20044;-68
2022/07/30 12:34:19;;;;;;;4.15;1.48;;;28.90;97.70;;;;;;5036750;28;20037;-68
2022/07/30 12:36:45;;;;;;;7.53;1.77;;;28.10;97.90;;;;;;5019147;28;20045;-68
2022/07/30 12:39:26;;;;;;;4.93;1.90;;;27.90;98.00;;;;;;5036626;28;20060;-68
2022/07/30 12:41:54;;;;;;;6.43;1.67;;;27.50;97.70;;;;;;5036681;28;20049;-68
2022/07/30 12:44:43;;;;;;;5.38;1.60;;;27.30;98.00;;;;;;5036796;28;20037;-68
2022/07/30 12:47:26;;;;;;;4.55;1.90;;;27.60;97.90;;;;;;5036423;28;20046;-68
2022/07/30 12:49:53;;;;;;;3.83;1.30;;;27.70;97.70;;;;;;5036494;28;20120;-68